| time (UTC) | temp F | wind direction | speed MPH | gust MPH | rain 1hr in | rain 24hr in | rain mn in | humidity % | barometer mb |
| 20260903000934 | 69 | 40 | 7.0 | 14.0 | 0.00 | 0.00 | 0.00 | 48 | 1007.9 |
| 20260902235938 | 70 | 40 | 14.0 | 22.0 | 0.00 | 0.00 | 0.00 | 45 | 1007.7 |
| 20260902234941 | 70 | 41 | 7.0 | 15.0 | 0.00 | 0.00 | 0.00 | 50 | 1007.5 |
| 20260902234005 | 71 | 41 | 12.0 | 22.0 | 0.00 | 0.00 | 0.00 | 48 | 1007.3 |
| 20260902232946 | 73 | 42 | 11.0 | 17.0 | 0.00 | 0.00 | 0.00 | 41 | 1006.9 |
| 20260902231934 | 73 | 42 | 4.0 | 14.0 | 0.00 | 0.00 | 0.00 | 44 | 1006.8 |
| 20260902230938 | 72 | 43 | 9.0 | 15.0 | 0.00 | 0.00 | 0.00 | 45 | 1007.0 |
| 20260902225940 | 73 | 43 | 16.0 | 26.0 | 0.00 | 0.00 | 0.00 | 42 | 1006.8 |
| 20260902224943 | 75 | 48 | 5.0 | 14.0 | 0.00 | 0.00 | 0.00 | 39 | 1006.2 |
| 20260902223950 | 76 | 48 | 0.0 | 0.0 | 0.00 | 0.00 | 0.00 | 42 | 1006.0 |
| 20260902222933 | 76 | 48 | 0.0 | 0.0 | 0.00 | 0.00 | 0.00 | 41 | 1005.8 |
| 20260902221939 | 76 | 48 | 0.0 | 2.0 | 0.00 | 0.00 | 0.00 | 43 | 1005.6 |
| 20260902220943 | 75 | 48 | 0.0 | 2.0 | 0.00 | 0.00 | 0.00 | 43 | 1005.5 |
| 20260902215950 | 75 | 48 | 0.0 | 2.0 | 0.00 | 0.00 | 0.00 | 43 | 1005.8 |
| 20260902214933 | 75 | 48 | 0.0 | 2.0 | 0.00 | 0.00 | 0.00 | 41 | 1005.9 |
| 20260902212949 | 77 | 48 | 1.0 | 7.0 | 0.00 | 0.00 | 0.00 | 42 | 1006.1 |
| 20260902211936 | 78 | 48 | 1.0 | 5.0 | 0.00 | 0.00 | 0.00 | 39 | 1006.2 |
| 20260902210958 | 78 | 48 | 2.0 | 8.0 | 0.00 | 0.00 | 0.00 | 43 | 1006.3 |
| 20260902205943 | 78 | 48 | 0.0 | 5.0 | 0.00 | 0.00 | 0.00 | 41 | 1006.5 |
| 20260902204947 | 77 | 48 | 0.0 | 0.0 | 0.00 | 0.00 | 0.00 | 42 | 1006.6 |
| 20260902203930 | 76 | 48 | 0.0 | 0.0 | 0.00 | 0.00 | 0.00 | 43 | 1006.7 |
| 20260902202937 | 75 | 48 | 0.0 | 0.0 | 0.00 | 0.00 | 0.00 | 40 | 1006.6 |
| 20260902202001 | 75 | 48 | 0.0 | 0.0 | 0.00 | 0.00 | 0.00 | 43 | 1006.8 |
| 20260902200943 | 75 | 48 | 0.0 | 3.0 | 0.00 | 0.00 | 0.00 | 40 | 1006.9 |
| 20260902195947 | 75 | 48 | 0.0 | 3.0 | 0.00 | 0.00 | 0.00 | 42 | 1007.0 |
| 20260902194933 | 74 | 48 | 0.0 | 3.0 | 0.00 | 0.00 | 0.00 | 43 | 1007.2 |
| 20260902193958 | 74 | 48 | 1.0 | 4.0 | 0.00 | 0.00 | 0.00 | 45 | 1007.4 |
| 20260902192944 | 74 | 48 | 0.0 | 4.0 | 0.00 | 0.00 | 0.00 | 48 | 1007.6 |
| 20260902191947 | 73 | 48 | 0.0 | 0.0 | 0.00 | 0.00 | 0.00 | 43 | 1007.7 |
| 20260902190936 | 72 | 48 | 0.0 | 4.0 | 0.00 | 0.00 | 0.00 | 45 | 1007.8 |
| 20260902185939 | 71 | 48 | 0.0 | 0.0 | 0.00 | 0.00 | 0.00 | 47 | 1007.8 |
| 20260902184945 | 70 | 48 | 0.0 | 0.0 | 0.00 | 0.00 | 0.00 | 47 | 1008.0 |
| 20260902183930 | 70 | 48 | 0.0 | 8.0 | 0.00 | 0.00 | 0.00 | 49 | 1008.0 |
| 20260902182937 | 70 | 48 | 0.0 | 0.0 | 0.00 | 0.00 | 0.00 | 47 | 1008.1 |
| 20260902181939 | 70 | 48 | 0.0 | 0.0 | 0.00 | 0.00 | 0.00 | 49 | 1008.2 |
| 20260902181003 | 70 | 48 | 0.0 | 3.0 | 0.00 | 0.00 | 0.00 | 50 | 1008.3 |
| 20260902175943 | 69 | 48 | 0.0 | 7.0 | 0.00 | 0.00 | 0.00 | 52 | 1008.5 |
| 20260902174948 | 68 | 48 | 3.0 | 7.0 | 0.00 | 0.00 | 0.00 | 51 | 1008.5 |
| 20260902173933 | 68 | 48 | 1.0 | 9.0 | 0.00 | 0.00 | 0.00 | 52 | 1008.6 |
| 20260902172936 | 67 | 48 | 0.0 | 9.0 | 0.00 | 0.00 | 0.00 | 53 | 1008.7 |
| 20260902171940 | 67 | 48 | 0.0 | 6.0 | 0.00 | 0.00 | 0.00 | 54 | 1008.9 |
| 20260902170944 | 67 | 48 | 0.0 | 0.0 | 0.00 | 0.00 | 0.00 | 53 | 1008.9 |
| 20260902165931 | 67 | 48 | 0.0 | 0.0 | 0.00 | 0.00 | 0.00 | 52 | 1009.0 |
| 20260902163946 | 66 | 48 | 0.0 | 0.0 | 0.00 | 0.00 | 0.00 | 53 | 1008.7 |
| 20260902162929 | 66 | 48 | 0.0 | 0.0 | 0.00 | 0.00 | 0.00 | 53 | 1008.8 |
| 20260902161932 | 65 | 48 | 0.0 | 4.0 | 0.00 | 0.00 | 0.00 | 54 | 1008.8 |
| 20260902160939 | 65 | 48 | 5.0 | 8.0 | 0.00 | 0.00 | 0.00 | 55 | 1008.9 |
| 20260902154935 | 63 | 48 | 0.0 | 0.0 | 0.00 | 0.00 | 0.00 | 59 | 1009.1 |
| 20260902153938 | 62 | 48 | 0.0 | 0.0 | 0.00 | 0.00 | 0.00 | 60 | 1009.3 |
| 20260902152942 | 61 | 48 | 0.0 | 0.0 | 0.00 | 0.00 | 0.00 | 63 | 1009.4 |
| 20260902151929 | 60 | 48 | 0.0 | 0.0 | 0.00 | 0.00 | 0.00 | 67 | 1009.6 |
| 20260902150932 | 60 | 48 | 0.0 | 0.0 | 0.00 | 0.00 | 0.00 | 67 | 1009.5 |
| 20260902145939 | 60 | 48 | 0.0 | 0.0 | 0.00 | 0.00 | 0.00 | 66 | 1009.6 |
| 20260902144942 | 60 | 48 | 0.0 | 0.0 | 0.00 | 0.00 | 0.00 | 65 | 1009.7 |
| 20260902143947 | 60 | 48 | 0.0 | 0.0 | 0.00 | 0.00 | 0.00 | 65 | 1009.6 |
| 20260902142931 | 61 | 48 | 0.0 | 0.0 | 0.00 | 0.00 | 0.00 | 63 | 1009.5 |
| 20260902141933 | 61 | 48 | 0.0 | 0.0 | 0.00 | 0.00 | 0.00 | 62 | 1009.7 |
| 20260902140937 | 61 | 48 | 0.0 | 0.0 | 0.00 | 0.00 | 0.00 | 61 | 1009.5 |
| 20260902135943 | 61 | 48 | 0.0 | 0.0 | 0.00 | 0.00 | 0.00 | 60 | 1009.6 |
| 20260902134947 | 61 | 48 | 1.0 | 5.0 | 0.00 | 0.00 | 0.00 | 61 | 1009.6 |
| 20260902134008 | 61 | 48 | 0.0 | 0.0 | 0.00 | 0.00 | 0.00 | 61 | 1009.6 |
| 20260902132950 | 61 | 48 | 0.0 | 0.0 | 0.00 | 0.00 | 0.00 | 62 | 1009.5 |
| 20260902131934 | 61 | 48 | 0.0 | 0.0 | 0.00 | 0.00 | 0.00 | 63 | 1009.4 |
| 20260902130939 | 61 | 48 | 0.0 | 0.0 | 0.00 | 0.00 | 0.00 | 62 | 1009.2 |
| 20260902125944 | 61 | 48 | 0.0 | 0.0 | 0.00 | 0.00 | 0.00 | 63 | 1009.0 |
| 20260902124928 | 61 | 48 | 0.0 | 7.0 | 0.00 | 0.00 | 0.00 | 63 | 1009.1 |
| 20260902123951 | 61 | 48 | 2.0 | 5.0 | 0.00 | 0.00 | 0.00 | 63 | 1009.5 |
| 20260902122936 | 61 | 48 | 0.0 | 3.0 | 0.00 | 0.00 | 0.00 | 63 | 1009.2 |
| 20260902122002 | 61 | 48 | 0.0 | 6.0 | 0.00 | 0.00 | 0.00 | 63 | 1009.1 |
| 20260902120943 | 61 | 48 | 3.0 | 8.0 | 0.00 | 0.00 | 0.00 | 62 | 1009.1 |
| 20260902115930 | 62 | 48 | 0.0 | 0.0 | 0.00 | 0.00 | 0.00 | 62 | 1008.6 |
| 20260902114936 | 62 | 48 | 0.0 | 0.0 | 0.00 | 0.00 | 0.00 | 61 | 1009.0 |
| 20260902113940 | 62 | 48 | 0.0 | 0.0 | 0.00 | 0.00 | 0.00 | 61 | 1009.0 |
| 20260902112944 | 62 | 48 | 0.0 | 9.0 | 0.00 | 0.00 | 0.00 | 61 | 1009.1 |
| 20260902111928 | 62 | 48 | 4.0 | 10.0 | 0.00 | 0.00 | 0.00 | 61 | 1009.1 |
| 20260902110934 | 62 | 48 | 0.0 | 12.0 | 0.00 | 0.00 | 0.00 | 61 | 1009.6 |
| 20260902105939 | 62 | 48 | 0.0 | 9.0 | 0.00 | 0.00 | 0.00 | 62 | 1009.6 |
| 20260902104942 | 61 | 48 | 1.0 | 12.0 | 0.00 | 0.00 | 0.00 | 62 | 1009.6 |
| 20260902103945 | 61 | 48 | 1.0 | 6.0 | 0.00 | 0.00 | 0.00 | 62 | 1009.7 |
| 20260902102933 | 62 | 48 | 1.0 | 7.0 | 0.00 | 0.00 | 0.00 | 61 | 1009.4 |
| 20260902101936 | 62 | 48 | 0.0 | 4.0 | 0.00 | 0.00 | 0.00 | 62 | 1009.0 |
| 20260902100942 | 62 | 48 | 3.0 | 11.0 | 0.00 | 0.00 | 0.00 | 61 | 1009.4 |
| 20260902095947 | 62 | 48 | 1.0 | 11.0 | 0.00 | 0.00 | 0.00 | 61 | 1009.2 |
| 20260902094937 | 62 | 48 | 1.0 | 11.0 | 0.00 | 0.00 | 0.00 | 60 | 1009.1 |
| 20260902093959 | 62 | 48 | 4.0 | 10.0 | 0.00 | 0.00 | 0.00 | 60 | 1009.1 |
| 20260902092940 | 62 | 48 | 2.0 | 15.0 | 0.00 | 0.00 | 0.00 | 60 | 1009.4 |
| 20260902091943 | 62 | 48 | 2.0 | 16.0 | 0.00 | 0.00 | 0.00 | 61 | 1009.5 |
| 20260902090948 | 62 | 48 | 0.0 | 7.0 | 0.00 | 0.00 | 0.00 | 59 | 1009.2 |
| 20260902085934 | 62 | 48 | 3.0 | 10.0 | 0.00 | 0.00 | 0.00 | 58 | 1009.2 |
| 20260902084935 | 63 | 48 | 5.0 | 10.0 | 0.00 | 0.00 | 0.00 | 58 | 1009.2 |
| 20260902084000 | 63 | 48 | 4.0 | 11.0 | 0.00 | 0.00 | 0.00 | 58 | 1009.4 |
| 20260902082943 | 63 | 48 | 1.0 | 14.0 | 0.00 | 0.00 | 0.00 | 57 | 1009.2 |
| 20260902081930 | 63 | 48 | 8.0 | 14.0 | 0.00 | 0.00 | 0.00 | 57 | 1009.3 |
| 20260902080935 | 63 | 48 | 0.0 | 0.0 | 0.00 | 0.00 | 0.00 | 56 | 1009.3 |
| 20260902075959 | 63 | 48 | 0.0 | 10.0 | 0.00 | 0.00 | 0.00 | 56 | 1009.4 |
| 20260902074942 | 64 | 48 | 2.0 | 14.0 | 0.00 | 0.00 | 0.00 | 55 | 1009.2 |
| 20260902073930 | 64 | 48 | 1.0 | 10.0 | 0.00 | 0.00 | 0.00 | 54 | 1009.2 |
| 20260902072952 | 64 | 48 | 2.0 | 13.0 | 0.00 | 0.00 | 0.00 | 54 | 1009.1 |
| 20260902071937 | 65 | 48 | 8.0 | 17.0 | 0.00 | 0.00 | 0.00 | 53 | 1009.1 |
| 20260902070941 | 65 | 48 | 2.0 | 10.0 | 0.00 | 0.00 | 0.00 | 53 | 1009.0 |
| 20260902070003 | 65 | 48 | 7.0 | 17.0 | 0.00 | 0.00 | 0.00 | 52 | 1008.8 |
| 20260902064929 | 65 | 48 | 0.0 | 10.0 | 0.00 | 0.00 | 0.00 | 52 | 1008.7 |
| 20260902063931 | 66 | 48 | 5.0 | 10.0 | 0.00 | 0.00 | 0.00 | 50 | 1008.7 |
| 20260902062934 | 66 | 48 | 2.0 | 11.0 | 0.00 | 0.00 | 0.00 | 50 | 1008.7 |
| 20260902061937 | 66 | 48 | 2.0 | 10.0 | 0.00 | 0.00 | 0.00 | 49 | 1008.6 |
| 20260902060946 | 66 | 48 | 4.0 | 10.0 | 0.00 | 0.00 | 0.00 | 48 | 1008.5 |
| 20260902055950 | 67 | 48 | 8.0 | 16.0 | 0.00 | 0.00 | 0.00 | 47 | 1008.6 |
| 20260902054933 | 67 | 48 | 6.0 | 10.0 | 0.00 | 0.00 | 0.00 | 47 | 1008.5 |
| 20260902053937 | 67 | 48 | 5.0 | 9.0 | 0.00 | 0.00 | 0.00 | 46 | 1008.2 |
| 20260902052939 | 68 | 48 | 5.0 | 14.0 | 0.00 | 0.00 | 0.00 | 46 | 1008.2 |
| 20260902051929 | 68 | 48 | 6.0 | 14.0 | 0.00 | 0.00 | 0.00 | 45 | 1008.1 |
| 20260902050932 | 68 | 48 | 8.0 | 18.0 | 0.00 | 0.00 | 0.00 | 45 | 1008.0 |
| 20260902045935 | 69 | 48 | 9.0 | 17.0 | 0.00 | 0.00 | 0.00 | 44 | 1007.8 |
| 20260902044938 | 69 | 49 | 11.0 | 20.0 | 0.00 | 0.00 | 0.00 | 44 | 1007.7 |
| 20260902044002 | 70 | 49 | 10.0 | 19.0 | 0.00 | 0.00 | 0.00 | 43 | 1007.6 |
| 20260902042928 | 70 | 49 | 8.0 | 16.0 | 0.00 | 0.00 | 0.00 | 43 | 1007.4 |
| 20260902041930 | 70 | 49 | 7.0 | 15.0 | 0.00 | 0.00 | 0.00 | 42 | 1007.2 |
| 20260902040932 | 71 | 49 | 6.0 | 14.0 | 0.00 | 0.00 | 0.00 | 43 | 1007.0 |
| 20260902035959 | 71 | 49 | 6.0 | 14.0 | 0.00 | 0.00 | 0.00 | 43 | 1006.9 |
| 20260902034941 | 70 | 49 | 3.0 | 10.0 | 0.00 | 0.00 | 0.00 | 45 | 1006.7 |
| 20260902033945 | 67 | 49 | 2.0 | 6.0 | 0.00 | 0.00 | 0.00 | 52 | 1006.4 |
| 20260902033007 | 67 | 49 | 0.0 | 0.0 | 0.00 | 0.00 | 0.00 | 58 | 1005.9 |
| 20260902031929 | 67 | 49 | 0.0 | 0.0 | 0.00 | 0.00 | 0.00 | 59 | 1005.8 |
| 20260902030939 | 68 | 49 | 0.0 | 0.0 | 0.00 | 0.00 | 0.00 | 59 | 1005.6 |
| 20260902025942 | 68 | 49 | 0.0 | 0.0 | 0.00 | 0.00 | 0.00 | 58 | 1005.6 |
| 20260902024927 | 69 | 49 | 0.0 | 0.0 | 0.00 | 0.00 | 0.00 | 58 | 1005.4 |
| 20260902022931 | 71 | 49 | 0.0 | 0.0 | 0.00 | 0.00 | 0.00 | 57 | 1005.3 |
| 20260902021934 | 73 | 50 | 0.0 | 0.0 | 0.00 | 0.00 | 0.00 | 56 | 1005.3 |
| 20260902020938 | 74 | 49 | 0.0 | 0.0 | 0.00 | 0.00 | 0.00 | 53 | 1005.2 |
| 20260902015939 | 75 | 49 | 0.0 | 0.0 | 0.00 | 0.00 | 0.00 | 50 | 1005.3 |
| 20260902013944 | 77 | 49 | 0.0 | 0.0 | 0.00 | 0.00 | 0.00 | 53 | 1005.5 |
| 20260902012928 | 77 | 49 | 0.0 | 0.0 | 0.00 | 0.00 | 0.00 | 51 | 1005.5 |
| 20260902011933 | 78 | 49 | 0.0 | 0.0 | 0.00 | 0.00 | 0.00 | 46 | 1005.3 |
| 20260902010935 | 79 | 49 | 0.0 | 0.0 | 0.00 | 0.00 | 0.00 | 45 | 1005.4 |
| 20260902005941 | 79 | 49 | 0.0 | 0.0 | 0.00 | 0.00 | 0.00 | 44 | 1005.5 |
| 20260902004945 | 80 | 49 | 0.0 | 0.0 | 0.00 | 0.00 | 0.00 | 44 | 1005.4 |
| 20260902004006 | 81 | 49 | 0.0 | 0.0 | 0.00 | 0.00 | 0.00 | 43 | 1005.3 |
| 20260902002929 | 81 | 49 | 0.0 | 4.0 | 0.00 | 0.00 | 0.00 | 43 | 1005.3 |
| 20260902001955 | 81 | 49 | 0.0 | 5.0 | 0.00 | 0.00 | 0.00 | 41 | 1005.3 |